sensor_id;sensor_type;location;lat;lon;timestamp;temperature;humidity
23729;DHT22;12045;60.214;24.724;2023-05-10T00:00:42;8.00;99.90
23729;DHT22;12045;60.214;24.724;2023-05-10T00:03:10;8.50;99.90
23729;DHT22;12045;60.214;24.724;2023-05-10T00:05:38;8.50;99.90
23729;DHT22;12045;60.214;24.724;2023-05-10T00:08:05;8.50;99.90
23729;DHT22;12045;60.214;24.724;2023-05-10T00:10:33;8.50;99.90
23729;DHT22;12045;60.214;24.724;2023-05-10T00:13:00;8.40;99.90
23729;DHT22;12045;60.214;24.724;2023-05-10T00:15:28;8.50;99.90
23729;DHT22;12045;60.214;24.724;2023-05-10T00:17:57;8.20;99.90
23729;DHT22;12045;60.214;24.724;2023-05-10T00:20:25;8.70;99.90
23729;DHT22;12045;60.214;24.724;2023-05-10T00:22:52;8.70;99.90
23729;DHT22;12045;60.214;24.724;2023-05-10T00:25:19;8.40;99.90
23729;DHT22;12045;60.214;24.724;2023-05-10T00:27:48;8.40;99.90
23729;DHT22;12045;60.214;24.724;2023-05-10T00:30:16;8.40;99.90
23729;DHT22;12045;60.214;24.724;2023-05-10T00:32:44;8.70;99.90
23729;DHT22;12045;60.214;24.724;2023-05-10T00:35:12;8.40;99.90
23729;DHT22;12045;60.214;24.724;2023-05-10T00:37:39;8.30;99.90
23729;DHT22;12045;60.214;24.724;2023-05-10T00:40:07;8.40;99.90
23729;DHT22;12045;60.214;24.724;2023-05-10T00:42:35;8.40;99.90
23729;DHT22;12045;60.214;24.724;2023-05-10T00:45:02;8.50;99.90
23729;DHT22;12045;60.214;24.724;2023-05-10T00:47:30;8.70;99.90
23729;DHT22;12045;60.214;24.724;2023-05-10T00:49:59;8.70;99.90
23729;DHT22;12045;60.214;24.724;2023-05-10T00:52:28;8.20;99.90
23729;DHT22;12045;60.214;24.724;2023-05-10T00:54:56;8.20;99.90
23729;DHT22;12045;60.214;24.724;2023-05-10T00:57:24;8.10;99.90
23729;DHT22;12045;60.214;24.724;2023-05-10T00:59:52;8.30;99.90
23729;DHT22;12045;60.214;24.724;2023-05-10T01:02:19;8.30;99.90
23729;DHT22;12045;60.214;24.724;2023-05-10T01:04:47;8.60;99.90
23729;DHT22;12045;60.214;24.724;2023-05-10T01:07:16;8.00;99.90
23729;DHT22;12045;60.214;24.724;2023-05-10T01:09:44;8.10;99.90
23729;DHT22;12045;60.214;24.724;2023-05-10T01:12:11;8.00;99.90
23729;DHT22;12045;60.214;24.724;2023-05-10T01:14:39;8.10;99.90
23729;DHT22;12045;60.214;24.724;2023-05-10T01:17:07;8.10;99.90
23729;DHT22;12045;60.214;24.724;2023-05-10T01:19:36;8.10;99.90
23729;DHT22;12045;60.214;24.724;2023-05-10T01:22:35;8.40;99.90
23729;DHT22;12045;60.214;24.724;2023-05-10T01:28:17;7.30;99.90
23729;DHT22;12045;60.214;24.724;2023-05-10T01:33:54;7.40;99.90
23729;DHT22;12045;60.214;24.724;2023-05-10T01:36:39;7.40;99.90
23729;DHT22;12045;60.214;24.724;2023-05-10T01:39:18;7.30;99.90
23729;DHT22;12045;60.214;24.724;2023-05-10T01:42:08;7.20;99.90
23729;DHT22;12045;60.214;24.724;2023-05-10T01:47:20;7.00;99.90
23729;DHT22;12045;60.214;24.724;2023-05-10T01:49:54;7.20;99.90
23729;DHT22;12045;60.214;24.724;2023-05-10T01:52:28;7.10;99.90
23729;DHT22;12045;60.214;24.724;2023-05-10T01:55:04;6.90;99.90
23729;DHT22;12045;60.214;24.724;2023-05-10T01:57:37;7.20;99.90
23729;DHT22;12045;60.214;24.724;2023-05-10T02:00:07;7.10;99.90
23729;DHT22;12045;60.214;24.724;2023-05-10T02:02:39;7.60;99.90
23729;DHT22;12045;60.214;24.724;2023-05-10T02:05:07;7.00;99.90
23729;DHT22;12045;60.214;24.724;2023-05-10T02:07:36;7.70;99.90
23729;DHT22;12045;60.214;24.724;2023-05-10T02:10:09;7.30;99.90
23729;DHT22;12045;60.214;24.724;2023-05-10T02:12:40;6.80;99.90
23729;DHT22;12045;60.214;24.724;2023-05-10T02:15:11;7.20;99.90
23729;DHT22;12045;60.214;24.724;2023-05-10T02:17:39;8.00;99.90
23729;DHT22;12045;60.214;24.724;2023-05-10T02:20:09;7.50;99.90
23729;DHT22;12045;60.214;24.724;2023-05-10T02:22:39;7.30;99.90
23729;DHT22;12045;60.214;24.724;2023-05-10T02:25:08;7.50;99.90
23729;DHT22;12045;60.214;24.724;2023-05-10T02:27:37;7.40;99.90
23729;DHT22;12045;60.214;24.724;2023-05-10T02:30:05;6.80;99.90
23729;DHT22;12045;60.214;24.724;2023-05-10T02:32:34;7.30;99.90
23729;DHT22;12045;60.214;24.724;2023-05-10T02:35:03;7.40;99.90
23729;DHT22;12045;60.214;24.724;2023-05-10T02:37:33;6.90;99.90
23729;DHT22;12045;60.214;24.724;2023-05-10T02:40:01;7.50;99.90
23729;DHT22;12045;60.214;24.724;2023-05-10T02:42:33;7.40;99.90
23729;DHT22;12045;60.214;24.724;2023-05-10T02:45:07;7.40;99.90
23729;DHT22;12045;60.214;24.724;2023-05-10T02:47:35;7.40;99.90
23729;DHT22;12045;60.214;24.724;2023-05-10T02:50:03;7.20;99.90
23729;DHT22;12045;60.214;24.724;2023-05-10T02:52:39;7.60;99.90
23729;DHT22;12045;60.214;24.724;2023-05-10T02:55:09;7.60;99.90
23729;DHT22;12045;60.214;24.724;2023-05-10T02:57:43;7.40;99.90
23729;DHT22;12045;60.214;24.724;2023-05-10T03:00:13;7.70;99.90
23729;DHT22;12045;60.214;24.724;2023-05-10T03:02:41;7.50;99.90
23729;DHT22;12045;60.214;24.724;2023-05-10T03:05:09;7.60;99.90
23729;DHT22;12045;60.214;24.724;2023-05-10T03:07:36;6.80;99.90
23729;DHT22;12045;60.214;24.724;2023-05-10T03:10:05;7.60;99.90
23729;DHT22;12045;60.214;24.724;2023-05-10T03:15:42;7.70;99.90
23729;DHT22;12045;60.214;24.724;2023-05-10T03:18:15;7.80;99.90
23729;DHT22;12045;60.214;24.724;2023-05-10T03:20:50;7.70;99.90
23729;DHT22;12045;60.214;24.724;2023-05-10T03:25:46;8.10;99.90
23729;DHT22;12045;60.214;24.724;2023-05-10T03:28:18;8.40;99.90
23729;DHT22;12045;60.214;24.724;2023-05-10T03:30:46;8.10;99.90
23729;DHT22;12045;60.214;24.724;2023-05-10T03:33:14;8.30;99.90
23729;DHT22;12045;60.214;24.724;2023-05-10T03:35:41;8.40;99.90
23729;DHT22;12045;60.214;24.724;2023-05-10T03:38:09;8.50;99.90
23729;DHT22;12045;60.214;24.724;2023-05-10T03:40:37;8.50;99.90
23729;DHT22;12045;60.214;24.724;2023-05-10T03:43:04;8.80;99.90
23729;DHT22;12045;60.214;24.724;2023-05-10T03:45:32;8.90;99.90
23729;DHT22;12045;60.214;24.724;2023-05-10T03:47:59;8.80;99.90
23729;DHT22;12045;60.214;24.724;2023-05-10T03:50:27;8.80;99.90
23729;DHT22;12045;60.214;24.724;2023-05-10T03:52:54;8.80;99.90
23729;DHT22;12045;60.214;24.724;2023-05-10T03:55:22;9.00;99.90
23729;DHT22;12045;60.214;24.724;2023-05-10T03:57:50;9.10;99.90
23729;DHT22;12045;60.214;24.724;2023-05-10T04:00:17;9.10;99.90
23729;DHT22;12045;60.214;24.724;2023-05-10T04:02:45;9.40;99.90
23729;DHT22;12045;60.214;24.724;2023-05-10T04:05:12;9.70;99.90
23729;DHT22;12045;60.214;24.724;2023-05-10T04:07:40;9.60;99.90
23729;DHT22;12045;60.214;24.724;2023-05-10T04:10:08;10.00;99.90
23729;DHT22;12045;60.214;24.724;2023-05-10T04:12:35;9.80;99.90
23729;DHT22;12045;60.214;24.724;2023-05-10T04:15:03;9.80;99.90
23729;DHT22;12045;60.214;24.724;2023-05-10T04:17:31;9.90;99.90
23729;DHT22;12045;60.214;24.724;2023-05-10T04:19:58;10.50;99.90
23729;DHT22;12045;60.214;24.724;2023-05-10T04:22:26;9.90;99.90
23729;DHT22;12045;60.214;24.724;2023-05-10T04:24:55;9.90;99.90
23729;DHT22;12045;60.214;24.724;2023-05-10T04:27:22;10.30;99.90
23729;DHT22;12045;60.214;24.724;2023-05-10T04:29:50;9.80;99.90
23729;DHT22;12045;60.214;24.724;2023-05-10T04:32:17;9.90;99.90
23729;DHT22;12045;60.214;24.724;2023-05-10T04:34:46;9.80;99.90
23729;DHT22;12045;60.214;24.724;2023-05-10T04:37:14;10.20;99.90
23729;DHT22;12045;60.214;24.724;2023-05-10T04:39:41;10.40;99.90
23729;DHT22;12045;60.214;24.724;2023-05-10T04:42:09;10.60;99.90
23729;DHT22;12045;60.214;24.724;2023-05-10T04:44:37;10.60;99.90
23729;DHT22;12045;60.214;24.724;2023-05-10T04:47:04;10.80;99.90
23729;DHT22;12045;60.214;24.724;2023-05-10T04:49:32;10.70;99.90
23729;DHT22;12045;60.214;24.724;2023-05-10T04:51:59;10.20;99.90
23729;DHT22;12045;60.214;24.724;2023-05-10T04:54:27;10.80;99.90
23729;DHT22;12045;60.214;24.724;2023-05-10T04:56:54;10.80;99.90
23729;DHT22;12045;60.214;24.724;2023-05-10T04:59:22;11.30;99.90
23729;DHT22;12045;60.214;24.724;2023-05-10T05:01:49;11.20;99.90
23729;DHT22;12045;60.214;24.724;2023-05-10T05:04:17;11.20;99.90
23729;DHT22;12045;60.214;24.724;2023-05-10T05:06:45;11.10;99.80
23729;DHT22;12045;60.214;24.724;2023-05-10T05:09:12;11.30;99.50
23729;DHT22;12045;60.214;24.724;2023-05-10T05:11:40;11.30;99.50
23729;DHT22;12045;60.214;24.724;2023-05-10T05:14:09;11.60;99.50
23729;DHT22;12045;60.214;24.724;2023-05-10T05:16:36;11.50;97.90
23729;DHT22;12045;60.214;24.724;2023-05-10T05:19:06;11.60;97.00
23729;DHT22;12045;60.214;24.724;2023-05-10T05:21:34;11.70;97.30
23729;DHT22;12045;60.214;24.724;2023-05-10T05:24:02;11.50;96.40
23729;DHT22;12045;60.214;24.724;2023-05-10T05:26:31;11.60;95.80
23729;DHT22;12045;60.214;24.724;2023-05-10T05:28:59;12.10;96.40
23729;DHT22;12045;60.214;24.724;2023-05-10T05:31:27;11.80;95.90
23729;DHT22;12045;60.214;24.724;2023-05-10T05:33:54;12.20;95.80
23729;DHT22;12045;60.214;24.724;2023-05-10T05:36:22;12.00;95.30
23729;DHT22;12045;60.214;24.724;2023-05-10T05:38:51;12.00;95.10
23729;DHT22;12045;60.214;24.724;2023-05-10T05:41:18;12.30;95.40
23729;DHT22;12045;60.214;24.724;2023-05-10T05:43:46;11.70;96.50
23729;DHT22;12045;60.214;24.724;2023-05-10T05:46:13;12.40;95.00
23729;DHT22;12045;60.214;24.724;2023-05-10T05:48:41;12.50;95.20
23729;DHT22;12045;60.214;24.724;2023-05-10T05:51:09;12.20;94.90
23729;DHT22;12045;60.214;24.724;2023-05-10T05:53:37;12.50;94.90
23729;DHT22;12045;60.214;24.724;2023-05-10T05:56:05;12.60;94.90
23729;DHT22;12045;60.214;24.724;2023-05-10T05:58:33;12.60;94.80
23729;DHT22;12045;60.214;24.724;2023-05-10T06:01:03;12.60;95.30
23729;DHT22;12045;60.214;24.724;2023-05-10T06:03:30;12.70;94.90
23729;DHT22;12045;60.214;24.724;2023-05-10T06:05:59;13.00;95.20
23729;DHT22;12045;60.214;24.724;2023-05-10T06:08:27;13.00;95.00
23729;DHT22;12045;60.214;24.724;2023-05-10T06:10:55;13.00;94.50
23729;DHT22;12045;60.214;24.724;2023-05-10T06:13:22;13.20;94.50
23729;DHT22;12045;60.214;24.724;2023-05-10T06:15:51;13.40;94.10
23729;DHT22;12045;60.214;24.724;2023-05-10T06:18:19;13.60;94.20
23729;DHT22;12045;60.214;24.724;2023-05-10T06:20:46;13.60;93.90
23729;DHT22;12045;60.214;24.724;2023-05-10T06:23:15;13.70;93.40
23729;DHT22;12045;60.214;24.724;2023-05-10T06:25:43;13.70;93.20
23729;DHT22;12045;60.214;24.724;2023-05-10T06:28:10;13.70;93.10
23729;DHT22;12045;60.214;24.724;2023-05-10T06:30:38;13.50;92.90
23729;DHT22;12045;60.214;24.724;2023-05-10T06:33:07;14.20;92.80
23729;DHT22;12045;60.214;24.724;2023-05-10T06:35:35;14.20;92.40
23729;DHT22;12045;60.214;24.724;2023-05-10T06:38:04;14.30;92.10
23729;DHT22;12045;60.214;24.724;2023-05-10T06:40:32;14.20;91.80
23729;DHT22;12045;60.214;24.724;2023-05-10T06:43:00;13.80;91.70
23729;DHT22;12045;60.214;24.724;2023-05-10T06:45:28;14.20;91.60
23729;DHT22;12045;60.214;24.724;2023-05-10T06:48:50;14.20;91.50
23729;DHT22;12045;60.214;24.724;2023-05-10T06:51:19;15.30;93.40
23729;DHT22;12045;60.214;24.724;2023-05-10T06:53:48;12.90;90.80
23729;DHT22;12045;60.214;24.724;2023-05-10T06:56:25;14.60;90.90
23729;DHT22;12045;60.214;24.724;2023-05-10T06:58:53;15.20;90.70
23729;DHT22;12045;60.214;24.724;2023-05-10T07:01:24;14.80;90.30
23729;DHT22;12045;60.214;24.724;2023-05-10T07:03:52;15.00;90.40
23729;DHT22;12045;60.214;24.724;2023-05-10T07:06:19;15.10;89.80
23729;DHT22;12045;60.214;24.724;2023-05-10T07:09:00;16.00;88.60
23729;DHT22;12045;60.214;24.724;2023-05-10T07:11:27;15.60;89.10
23729;DHT22;12045;60.214;24.724;2023-05-10T07:13:55;14.60;86.80
23729;DHT22;12045;60.214;24.724;2023-05-10T07:16:24;15.00;87.50
23729;DHT22;12045;60.214;24.724;2023-05-10T07:18:52;14.50;86.60
23729;DHT22;12045;60.214;24.724;2023-05-10T07:21:20;15.50;86.30
23729;DHT22;12045;60.214;24.724;2023-05-10T07:23:49;14.60;86.40
23729;DHT22;12045;60.214;24.724;2023-05-10T07:26:22;16.40;86.50
23729;DHT22;12045;60.214;24.724;2023-05-10T07:28:52;16.10;85.60
23729;DHT22;12045;60.214;24.724;2023-05-10T07:31:19;16.10;83.70
23729;DHT22;12045;60.214;24.724;2023-05-10T07:33:48;16.30;82.30
23729;DHT22;12045;60.214;24.724;2023-05-10T07:36:17;16.50;81.40
23729;DHT22;12045;60.214;24.724;2023-05-10T07:38:46;16.50;81.50
23729;DHT22;12045;60.214;24.724;2023-05-10T07:41:14;16.50;78.10
23729;DHT22;12045;60.214;24.724;2023-05-10T07:43:42;16.30;74.90
23729;DHT22;12045;60.214;24.724;2023-05-10T07:46:10;16.70;77.30
23729;DHT22;12045;60.214;24.724;2023-05-10T07:48:38;16.20;74.40
23729;DHT22;12045;60.214;24.724;2023-05-10T07:51:05;16.40;73.30
23729;DHT22;12045;60.214;24.724;2023-05-10T07:53:34;16.90;73.60
23729;DHT22;12045;60.214;24.724;2023-05-10T07:56:20;16.50;73.10
23729;DHT22;12045;60.214;24.724;2023-05-10T07:58:49;16.90;71.00
23729;DHT22;12045;60.214;24.724;2023-05-10T08:01:16;17.30;72.40
23729;DHT22;12045;60.214;24.724;2023-05-10T08:03:44;16.80;71.10
23729;DHT22;12045;60.214;24.724;2023-05-10T08:06:17;17.10;70.00
23729;DHT22;12045;60.214;24.724;2023-05-10T08:08:46;16.50;68.40
23729;DHT22;12045;60.214;24.724;2023-05-10T08:11:17;17.20;68.20
23729;DHT22;12045;60.214;24.724;2023-05-10T08:13:46;16.60;68.60
23729;DHT22;12045;60.214;24.724;2023-05-10T08:16:14;16.40;67.80
23729;DHT22;12045;60.214;24.724;2023-05-10T08:18:44;16.50;67.00
23729;DHT22;12045;60.214;24.724;2023-05-10T08:21:13;17.10;67.80
23729;DHT22;12045;60.214;24.724;2023-05-10T08:23:42;17.60;68.00
23729;DHT22;12045;60.214;24.724;2023-05-10T08:26:11;16.90;65.40
23729;DHT22;12045;60.214;24.724;2023-05-10T08:28:48;16.70;62.40
23729;DHT22;12045;60.214;24.724;2023-05-10T08:31:27;16.60;60.20
23729;DHT22;12045;60.214;24.724;2023-05-10T08:33:58;16.90;58.20
23729;DHT22;12045;60.214;24.724;2023-05-10T08:36:27;16.70;60.00
23729;DHT22;12045;60.214;24.724;2023-05-10T08:38:55;16.80;60.40
23729;DHT22;12045;60.214;24.724;2023-05-10T08:41:29;16.70;59.30
23729;DHT22;12045;60.214;24.724;2023-05-10T08:44:07;15.70;56.60
23729;DHT22;12045;60.214;24.724;2023-05-10T08:46:36;16.80;58.80
23729;DHT22;12045;60.214;24.724;2023-05-10T08:49:07;16.80;58.80
23729;DHT22;12045;60.214;24.724;2023-05-10T08:51:40;17.10;57.50
23729;DHT22;12045;60.214;24.724;2023-05-10T08:54:10;17.30;58.70
23729;DHT22;12045;60.214;24.724;2023-05-10T08:56:37;16.90;59.10
23729;DHT22;12045;60.214;24.724;2023-05-10T08:59:05;17.00;59.30
23729;DHT22;12045;60.214;24.724;2023-05-10T09:01:35;17.20;60.00
23729;DHT22;12045;60.214;24.724;2023-05-10T09:04:03;16.70;57.30
23729;DHT22;12045;60.214;24.724;2023-05-10T09:06:32;17.00;59.90
23729;DHT22;12045;60.214;24.724;2023-05-10T09:09:01;17.50;63.40
23729;DHT22;12045;60.214;24.724;2023-05-10T09:11:28;16.80;62.20
23729;DHT22;12045;60.214;24.724;2023-05-10T09:13:58;16.90;60.40
23729;DHT22;12045;60.214;24.724;2023-05-10T09:16:32;17.40;60.80
23729;DHT22;12045;60.214;24.724;2023-05-10T09:18:59;16.50;61.20
23729;DHT22;12045;60.214;24.724;2023-05-10T09:21:27;17.50;62.10
23729;DHT22;12045;60.214;24.724;2023-05-10T09:23:56;17.40;62.30
23729;DHT22;12045;60.214;24.724;2023-05-10T09:26:25;17.00;61.20
23729;DHT22;12045;60.214;24.724;2023-05-10T09:28:55;17.10;61.90
23729;DHT22;12045;60.214;24.724;2023-05-10T09:31:44;17.00;62.90
23729;DHT22;12045;60.214;24.724;2023-05-10T09:34:28;17.30;61.70
23729;DHT22;12045;60.214;24.724;2023-05-10T09:36:59;17.20;60.30
23729;DHT22;12045;60.214;24.724;2023-05-10T09:39:37;17.70;60.90
23729;DHT22;12045;60.214;24.724;2023-05-10T09:42:09;17.30;60.70
23729;DHT22;12045;60.214;24.724;2023-05-10T09:44:38;17.60;60.10
23729;DHT22;12045;60.214;24.724;2023-05-10T09:47:17;17.80;60.60
23729;DHT22;12045;60.214;24.724;2023-05-10T09:49:52;17.90;59.10
23729;DHT22;12045;60.214;24.724;2023-05-10T09:52:25;17.80;58.50
23729;DHT22;12045;60.214;24.724;2023-05-10T09:54:55;18.30;59.10
23729;DHT22;12045;60.214;24.724;2023-05-10T09:57:24;17.90;58.40
23729;DHT22;12045;60.214;24.724;2023-05-10T09:59:54;18.30;58.40
23729;DHT22;12045;60.214;24.724;2023-05-10T10:02:28;18.80;58.40
23729;DHT22;12045;60.214;24.724;2023-05-10T10:05:01;18.20;57.10
23729;DHT22;12045;60.214;24.724;2023-05-10T10:07:30;18.40;58.60
23729;DHT22;12045;60.214;24.724;2023-05-10T10:09:59;18.50;58.70
23729;DHT22;12045;60.214;24.724;2023-05-10T10:12:27;18.30;57.90
23729;DHT22;12045;60.214;24.724;2023-05-10T10:15:00;18.90;58.70
23729;DHT22;12045;60.214;24.724;2023-05-10T10:17:30;18.90;59.30
23729;DHT22;12045;60.214;24.724;2023-05-10T10:20:15;19.20;59.10
23729;DHT22;12045;60.214;24.724;2023-05-10T10:22:54;19.30;59.90
23729;DHT22;12045;60.214;24.724;2023-05-10T10:25:23;19.00;58.90
23729;DHT22;12045;60.214;24.724;2023-05-10T10:30:43;18.80;59.20
23729;DHT22;12045;60.214;24.724;2023-05-10T10:36:15;19.40;58.50
23729;DHT22;12045;60.214;24.724;2023-05-10T10:38:57;19.60;58.40
23729;DHT22;12045;60.214;24.724;2023-05-10T10:41:36;20.00;58.30
23729;DHT22;12045;60.214;24.724;2023-05-10T10:49:50;20.40;63.60
23729;DHT22;12045;60.214;24.724;2023-05-10T10:52:37;20.20;63.30
23729;DHT22;12045;60.214;24.724;2023-05-10T10:57:50;20.20;64.80
23729;DHT22;12045;60.214;24.724;2023-05-10T11:01:32;19.60;64.90
23729;DHT22;12045;60.214;24.724;2023-05-10T11:06:35;20.20;62.40
23729;DHT22;12045;60.214;24.724;2023-05-10T11:09:07;20.10;62.50
23729;DHT22;12045;60.214;24.724;2023-05-10T11:11:52;20.30;61.70
23729;DHT22;12045;60.214;24.724;2023-05-10T11:14:49;20.50;61.20
23729;DHT22;12045;60.214;24.724;2023-05-10T11:17:25;19.70;62.50
23729;DHT22;12045;60.214;24.724;2023-05-10T11:20:07;19.70;63.00
23729;DHT22;12045;60.214;24.724;2023-05-10T11:22:53;20.70;61.80
23729;DHT22;12045;60.214;24.724;2023-05-10T11:25:32;19.50;61.30
23729;DHT22;12045;60.214;24.724;2023-05-10T11:28:04;19.30;63.60
23729;DHT22;12045;60.214;24.724;2023-05-10T11:30:34;19.30;62.10
23729;DHT22;12045;60.214;24.724;2023-05-10T11:33:02;19.80;62.10
23729;DHT22;12045;60.214;24.724;2023-05-10T11:35:31;19.80;61.00
23729;DHT22;12045;60.214;24.724;2023-05-10T11:38:08;19.50;62.10
23729;DHT22;12045;60.214;24.724;2023-05-10T11:40:37;19.90;62.00
23729;DHT22;12045;60.214;24.724;2023-05-10T11:43:05;20.00;63.00
23729;DHT22;12045;60.214;24.724;2023-05-10T11:45:37;20.10;61.60
23729;DHT22;12045;60.214;24.724;2023-05-10T11:48:05;20.10;61.50
23729;DHT22;12045;60.214;24.724;2023-05-10T11:50:33;19.60;63.40
23729;DHT22;12045;60.214;24.724;2023-05-10T11:53:02;19.40;63.40
23729;DHT22;12045;60.214;24.724;2023-05-10T11:55:33;19.20;62.50
23729;DHT22;12045;60.214;24.724;2023-05-10T11:58:01;19.30;64.40
23729;DHT22;12045;60.214;24.724;2023-05-10T12:00:32;20.30;62.80
23729;DHT22;12045;60.214;24.724;2023-05-10T12:03:00;20.30;61.70
23729;DHT22;12045;60.214;24.724;2023-05-10T12:05:32;19.90;61.00
23729;DHT22;12045;60.214;24.724;2023-05-10T12:08:13;19.10;61.30
23729;DHT22;12045;60.214;24.724;2023-05-10T12:10:41;20.00;61.40
23729;DHT22;12045;60.214;24.724;2023-05-10T12:13:13;19.30;61.50
23729;DHT22;12045;60.214;24.724;2023-05-10T12:15:43;20.10;61.70
23729;DHT22;12045;60.214;24.724;2023-05-10T12:18:12;19.70;61.50
23729;DHT22;12045;60.214;24.724;2023-05-10T12:20:40;19.40;61.30
23729;DHT22;12045;60.214;24.724;2023-05-10T12:23:11;20.60;61.00
23729;DHT22;12045;60.214;24.724;2023-05-10T12:25:40;20.60;63.60
23729;DHT22;12045;60.214;24.724;2023-05-10T12:28:08;20.80;63.90
23729;DHT22;12045;60.214;24.724;2023-05-10T12:30:46;21.50;65.50
23729;DHT22;12045;60.214;24.724;2023-05-10T12:33:14;20.60;65.20
23729;DHT22;12045;60.214;24.724;2023-05-10T12:35:52;20.50;65.10
23729;DHT22;12045;60.214;24.724;2023-05-10T12:38:32;20.40;65.00
23729;DHT22;12045;60.214;24.724;2023-05-10T12:41:02;20.40;64.90
23729;DHT22;12045;60.214;24.724;2023-05-10T12:43:30;20.10;63.60
23729;DHT22;12045;60.214;24.724;2023-05-10T12:45:57;19.70;63.70
23729;DHT22;12045;60.214;24.724;2023-05-10T12:48:26;19.60;65.00
23729;DHT22;12045;60.214;24.724;2023-05-10T12:50:56;19.60;63.60
23729;DHT22;12045;60.214;24.724;2023-05-10T12:53:23;19.80;63.60
23729;DHT22;12045;60.214;24.724;2023-05-10T12:55:51;19.60;63.80
23729;DHT22;12045;60.214;24.724;2023-05-10T12:58:18;20.20;66.00
23729;DHT22;12045;60.214;24.724;2023-05-10T13:01:02;19.80;64.50
23729;DHT22;12045;60.214;24.724;2023-05-10T13:03:31;19.60;63.40
23729;DHT22;12045;60.214;24.724;2023-05-10T13:05:59;20.30;63.80
23729;DHT22;12045;60.214;24.724;2023-05-10T13:08:28;19.90;64.00
23729;DHT22;12045;60.214;24.724;2023-05-10T13:11:01;20.20;62.90
23729;DHT22;12045;60.214;24.724;2023-05-10T13:13:29;20.30;63.20
23729;DHT22;12045;60.214;24.724;2023-05-10T13:15:56;20.30;63.20
23729;DHT22;12045;60.214;24.724;2023-05-10T13:18:24;20.60;64.50
23729;DHT22;12045;60.214;24.724;2023-05-10T13:20:51;20.30;62.60
23729;DHT22;12045;60.214;24.724;2023-05-10T13:23:23;20.20;61.90
23729;DHT22;12045;60.214;24.724;2023-05-10T13:25:51;20.70;61.70
23729;DHT22;12045;60.214;24.724;2023-05-10T13:28:19;20.30;62.20
23729;DHT22;12045;60.214;24.724;2023-05-10T13:30:48;20.10;61.30
23729;DHT22;12045;60.214;24.724;2023-05-10T13:33:17;20.30;63.30
23729;DHT22;12045;60.214;24.724;2023-05-10T13:35:52;19.90;64.30
23729;DHT22;12045;60.214;24.724;2023-05-10T13:38:21;19.90;63.40
23729;DHT22;12045;60.214;24.724;2023-05-10T13:40:49;19.40;64.80
23729;DHT22;12045;60.214;24.724;2023-05-10T13:43:19;19.70;65.20
23729;DHT22;12045;60.214;24.724;2023-05-10T13:45:47;19.80;65.70
23729;DHT22;12045;60.214;24.724;2023-05-10T13:48:14;19.20;65.00
23729;DHT22;12045;60.214;24.724;2023-05-10T13:50:43;19.20;66.10
23729;DHT22;12045;60.214;24.724;2023-05-10T13:53:10;19.20;64.50
23729;DHT22;12045;60.214;24.724;2023-05-10T13:55:38;19.20;65.60
23729;DHT22;12045;60.214;24.724;2023-05-10T13:58:05;19.00;65.50
23729;DHT22;12045;60.214;24.724;2023-05-10T14:00:33;18.80;65.80
23729;DHT22;12045;60.214;24.724;2023-05-10T14:03:02;19.40;65.30
23729;DHT22;12045;60.214;24.724;2023-05-10T14:05:29;19.00;65.30
23729;DHT22;12045;60.214;24.724;2023-05-10T14:07:57;18.90;64.80
23729;DHT22;12045;60.214;24.724;2023-05-10T14:10:25;18.80;64.70
23729;DHT22;12045;60.214;24.724;2023-05-10T14:12:54;18.90;66.10
23729;DHT22;12045;60.214;24.724;2023-05-10T14:15:22;19.60;65.80
23729;DHT22;12045;60.214;24.724;2023-05-10T14:17:49;18.90;65.00
23729;DHT22;12045;60.214;24.724;2023-05-10T14:20:17;19.00;65.60
23729;DHT22;12045;60.214;24.724;2023-05-10T14:22:44;18.80;65.20
23729;DHT22;12045;60.214;24.724;2023-05-10T14:25:12;18.50;65.10
23729;DHT22;12045;60.214;24.724;2023-05-10T14:27:40;18.90;63.80
23729;DHT22;12045;60.214;24.724;2023-05-10T14:30:08;18.60;64.70
23729;DHT22;12045;60.214;24.724;2023-05-10T14:32:36;18.80;63.30
23729;DHT22;12045;60.214;24.724;2023-05-10T14:35:04;18.80;62.60
23729;DHT22;12045;60.214;24.724;2023-05-10T14:37:39;18.90;62.20
23729;DHT22;12045;60.214;24.724;2023-05-10T14:40:07;18.60;62.60
23729;DHT22;12045;60.214;24.724;2023-05-10T14:42:34;18.70;63.70
23729;DHT22;12045;60.214;24.724;2023-05-10T14:45:03;18.70;63.50
23729;DHT22;12045;60.214;24.724;2023-05-10T14:47:30;18.90;63.00
23729;DHT22;12045;60.214;24.724;2023-05-10T14:49:58;18.90;63.30
23729;DHT22;12045;60.214;24.724;2023-05-10T14:52:26;18.60;63.20
23729;DHT22;12045;60.214;24.724;2023-05-10T14:54:53;18.70;63.80
23729;DHT22;12045;60.214;24.724;2023-05-10T14:57:21;18.70;64.00
23729;DHT22;12045;60.214;24.724;2023-05-10T14:59:48;18.70;63.70
23729;DHT22;12045;60.214;24.724;2023-05-10T15:02:16;18.30;62.70
23729;DHT22;12045;60.214;24.724;2023-05-10T15:04:45;19.00;63.60
23729;DHT22;12045;60.214;24.724;2023-05-10T15:07:13;18.50;63.20
23729;DHT22;12045;60.214;24.724;2023-05-10T15:09:42;18.90;62.70
23729;DHT22;12045;60.214;24.724;2023-05-10T15:12:10;18.90;62.10
23729;DHT22;12045;60.214;24.724;2023-05-10T15:14:38;18.60;63.70
23729;DHT22;12045;60.214;24.724;2023-05-10T15:17:06;18.90;63.40
23729;DHT22;12045;60.214;24.724;2023-05-10T15:19:34;19.00;63.00
23729;DHT22;12045;60.214;24.724;2023-05-10T15:22:04;19.00;63.40
23729;DHT22;12045;60.214;24.724;2023-05-10T15:24:32;19.00;62.90
23729;DHT22;12045;60.214;24.724;2023-05-10T15:26:59;19.00;62.90
23729;DHT22;12045;60.214;24.724;2023-05-10T15:29:28;19.00;63.20
23729;DHT22;12045;60.214;24.724;2023-05-10T15:31:56;18.60;62.00
23729;DHT22;12045;60.214;24.724;2023-05-10T15:34:24;19.00;61.20
23729;DHT22;12045;60.214;24.724;2023-05-10T15:36:51;19.00;62.90
23729;DHT22;12045;60.214;24.724;2023-05-10T15:39:19;19.20;62.00
23729;DHT22;12045;60.214;24.724;2023-05-10T15:41:46;19.30;62.00
23729;DHT22;12045;60.214;24.724;2023-05-10T15:44:14;19.60;63.20
23729;DHT22;12045;60.214;24.724;2023-05-10T15:46:42;19.00;63.70
23729;DHT22;12045;60.214;24.724;2023-05-10T15:49:09;19.40;62.50
23729;DHT22;12045;60.214;24.724;2023-05-10T15:51:37;19.00;63.50
23729;DHT22;12045;60.214;24.724;2023-05-10T15:54:04;19.30;63.00
23729;DHT22;12045;60.214;24.724;2023-05-10T15:56:35;19.30;63.10
23729;DHT22;12045;60.214;24.724;2023-05-10T15:59:02;18.20;61.00
23729;DHT22;12045;60.214;24.724;2023-05-10T16:01:30;18.80;63.00
23729;DHT22;12045;60.214;24.724;2023-05-10T16:03:59;18.80;63.40
23729;DHT22;12045;60.214;24.724;2023-05-10T16:06:27;18.90;63.10
23729;DHT22;12045;60.214;24.724;2023-05-10T16:08:54;18.80;62.50